createdAt,value
2019-03-27T00:00:13.787Z,31.62
2019-03-27T00:02:44.950Z,37.67
2019-03-27T00:05:16.682Z,27.22
2019-03-27T00:07:47.867Z,34.88
2019-03-27T00:10:19.035Z,33.60
2019-03-27T00:12:50.200Z,32.75
2019-03-27T00:15:21.388Z,38.98
2019-03-27T00:17:52.534Z,27.20
2019-03-27T00:20:23.762Z,37.33
2019-03-27T00:22:54.977Z,29.95
2019-03-27T00:25:26.137Z,23.55
2019-03-27T00:27:57.396Z,29.92
2019-03-27T00:30:28.566Z,24.07
2019-03-27T00:32:59.727Z,28.65
2019-03-27T00:35:30.955Z,23.45
2019-03-27T00:38:02.672Z,34.95
2019-03-27T00:40:33.974Z,33.05
2019-03-27T00:43:05.733Z,32.83
2019-03-27T00:45:36.897Z,29.90
2019-03-27T00:48:08.067Z,33.53
2019-03-27T00:50:39.301Z,26.77
2019-03-27T00:53:10.495Z,30.62
2019-03-27T00:55:41.646Z,23.47
2019-03-27T00:58:12.846Z,30.30
2019-03-27T01:01:15.835Z,28.67
2019-03-27T01:03:47.019Z,28.57
2019-03-27T01:06:18.255Z,31.95
2019-03-27T01:08:49.409Z,30.32
2019-03-27T01:11:20.633Z,23.67
2019-03-27T01:13:51.921Z,25.17
2019-03-27T01:16:23.144Z,24.15
2019-03-27T01:18:54.339Z,24.30
2019-03-27T01:21:25.503Z,26.70
2019-03-27T01:23:56.642Z,24.07
2019-03-27T01:26:27.840Z,23.22
2019-03-27T01:28:59.104Z,23.38
2019-03-27T01:31:30.372Z,23.12
2019-03-27T01:34:01.609Z,25.60
2019-03-27T01:36:32.823Z,32.28
2019-03-27T01:39:06.314Z,22.73
2019-03-27T01:41:37.559Z,26.93
2019-03-27T01:44:08.733Z,21.50
2019-03-27T01:46:39.975Z,23.98
2019-03-27T01:49:11.146Z,24.37
2019-03-27T01:51:42.401Z,23.27
2019-03-27T01:54:13.621Z,22.75
2019-03-27T01:56:44.807Z,16.32
2019-03-27T01:59:16.027Z,21.75
2019-03-27T02:01:47.225Z,19.25
2019-03-27T02:04:18.392Z,23.05
2019-03-27T02:06:49.569Z,15.78
2019-03-27T02:09:20.785Z,19.75
2019-03-27T02:11:51.992Z,27.00
2019-03-27T02:14:23.183Z,23.15
2019-03-27T02:16:54.360Z,20.40
2019-03-27T02:19:25.517Z,27.30
2019-03-27T02:21:56.700Z,25.70
2019-03-27T02:24:27.920Z,27.90
2019-03-27T02:26:59.095Z,37.53
2019-03-27T02:29:30.299Z,25.45
2019-03-27T02:32:01.539Z,24.63
2019-03-27T02:34:32.713Z,20.30
2019-03-27T02:37:03.864Z,25.12
2019-03-27T02:39:35.125Z,29.45
2019-03-27T02:42:07.140Z,28.17
2019-03-27T02:44:38.372Z,33.18
2019-03-27T02:47:09.535Z,34.00
2019-03-27T02:49:40.683Z,30.68
2019-03-27T02:52:11.922Z,30.45
2019-03-27T02:54:43.088Z,28.40
2019-03-27T02:57:14.255Z,33.80
2019-03-27T02:59:45.449Z,34.63
2019-03-27T03:02:16.610Z,33.00
2019-03-27T03:04:47.775Z,33.80
2019-03-27T03:07:18.984Z,32.45
2019-03-27T03:09:50.228Z,30.92
2019-03-27T03:12:21.393Z,31.77
2019-03-27T03:14:52.580Z,33.33
2019-03-27T03:17:24.453Z,31.57
2019-03-27T03:19:55.613Z,28.30
2019-03-27T03:22:26.812Z,29.82
2019-03-27T03:24:57.999Z,34.65
2019-03-27T03:27:29.203Z,31.97
2019-03-27T03:30:00.663Z,32.67
2019-03-27T03:32:31.991Z,28.47
2019-03-27T03:35:03.209Z,32.55
2019-03-27T03:37:34.487Z,37.65
2019-03-27T03:40:06.067Z,27.82
2019-03-27T03:42:37.268Z,27.02
2019-03-27T03:45:08.929Z,28.15
2019-03-27T03:47:40.165Z,34.98
2019-03-27T03:50:37.195Z,34.92
2019-03-27T03:53:11.079Z,29.00
2019-03-27T03:55:43.671Z,34.53
2019-03-27T03:58:17.711Z,40.67
2019-03-27T04:00:49.327Z,33.48
2019-03-27T04:03:20.711Z,38.63
2019-03-27T04:05:51.880Z,29.32
2019-03-27T04:08:23.086Z,31.73
2019-03-27T04:10:54.288Z,28.52
2019-03-27T04:13:25.493Z,34.45
2019-03-27T04:15:56.746Z,36.70
2019-03-27T04:18:27.998Z,31.93
2019-03-27T04:20:59.162Z,34.48
2019-03-27T04:23:30.396Z,38.05
2019-03-27T04:26:09.494Z,34.30
2019-03-27T04:28:34.813Z,32.88
2019-03-27T04:31:06.181Z,28.02
2019-03-27T04:33:39.650Z,31.00
2019-03-27T04:36:12.515Z,33.13
2019-03-27T04:38:44.423Z,32.55
2019-03-27T04:41:15.760Z,26.60
2019-03-27T04:43:47.166Z,26.97
2019-03-27T04:46:18.579Z,28.10
2019-03-27T04:48:49.989Z,37.03
2019-03-27T04:51:21.298Z,31.23
2019-03-27T04:53:52.706Z,34.13
2019-03-27T04:56:24.142Z,33.28
2019-03-27T04:58:55.496Z,34.30
2019-03-27T05:01:26.962Z,38.15
2019-03-27T05:03:58.955Z,27.37
2019-03-27T05:06:30.500Z,34.83
2019-03-27T05:09:01.915Z,27.90
2019-03-27T05:11:36.896Z,31.60
2019-03-27T05:14:08.311Z,32.53
2019-03-27T05:16:39.716Z,32.42
2019-03-27T05:19:11.298Z,27.60
2019-03-27T05:21:42.732Z,28.10
2019-03-27T05:24:16.370Z,30.80
2019-03-27T05:26:47.977Z,36.65
2019-03-27T05:29:19.529Z,31.50
2019-03-27T05:31:51.004Z,34.75
2019-03-27T05:34:22.460Z,37.83
2019-03-27T05:36:53.953Z,35.35
2019-03-27T05:39:25.457Z,48.80
2019-03-27T05:41:56.827Z,35.55
2019-03-27T05:44:28.185Z,38.55
2019-03-27T05:46:59.557Z,37.53
2019-03-27T05:49:31.100Z,31.90
2019-03-27T05:52:02.646Z,34.80
2019-03-27T05:54:34.296Z,33.25
2019-03-27T05:57:05.697Z,27.60
2019-03-27T05:59:36.939Z,32.25
2019-03-27T06:02:08.300Z,34.70
2019-03-27T06:04:39.492Z,36.58
2019-03-27T06:07:10.679Z,29.05
2019-03-27T06:09:41.820Z,29.82
2019-03-27T06:12:13.008Z,35.68
2019-03-27T06:14:44.250Z,34.92
2019-03-27T06:17:15.486Z,29.63
2019-03-27T06:19:46.672Z,41.08
2019-03-27T06:22:17.839Z,42.35
2019-03-27T06:24:49.039Z,45.78
2019-03-27T06:27:20.246Z,44.03
2019-03-27T06:29:51.398Z,49.18
2019-03-27T06:32:22.672Z,35.65
2019-03-27T06:34:53.846Z,46.42
2019-03-27T06:37:25.774Z,49.58
2019-03-27T06:39:56.986Z,42.25
2019-03-27T06:42:28.212Z,45.12
2019-03-27T06:44:59.377Z,36.50
2019-03-27T06:47:32.775Z,46.25
2019-03-27T06:50:04.696Z,40.35
2019-03-27T06:52:35.848Z,43.83
2019-03-27T06:55:07.892Z,41.10
2019-03-27T06:57:39.046Z,43.15
2019-03-27T07:00:12.320Z,37.15
2019-03-27T07:02:43.479Z,38.70
2019-03-27T07:05:14.732Z,35.65
2019-03-27T07:07:45.901Z,31.55
2019-03-27T07:10:17.259Z,25.30
2019-03-27T07:12:48.461Z,31.10
2019-03-27T07:15:19.648Z,32.85
2019-03-27T07:17:50.891Z,29.50
2019-03-27T07:20:22.168Z,29.25
2019-03-27T07:22:53.392Z,30.05
2019-03-27T07:25:24.592Z,30.02
2019-03-27T07:27:55.872Z,23.92
2019-03-27T07:30:27.316Z,24.25
2019-03-27T07:32:58.605Z,31.93
2019-03-27T07:35:29.869Z,26.52
2019-03-27T07:38:01.136Z,31.12
2019-03-27T07:40:32.463Z,21.68
2019-03-27T07:43:03.640Z,22.87
2019-03-27T07:45:34.842Z,21.95
2019-03-27T07:48:05.994Z,18.07
2019-03-27T07:50:37.168Z,25.43
2019-03-27T07:53:08.566Z,25.77
2019-03-27T07:55:40.392Z,37.78
2019-03-27T07:58:11.914Z,28.80
2019-03-27T08:00:43.122Z,26.85
2019-03-27T08:03:14.471Z,27.75
2019-03-27T08:05:46.135Z,18.80
2019-03-27T08:08:17.435Z,24.92
2019-03-27T08:10:49.067Z,18.52
2019-03-27T08:13:20.764Z,21.87
2019-03-27T08:15:52.464Z,19.80
2019-03-27T08:18:24.119Z,20.97
2019-03-27T08:20:55.824Z,29.63
2019-03-27T08:23:27.452Z,21.27
2019-03-27T08:25:59.116Z,19.45
2019-03-27T08:28:30.499Z,19.62
2019-03-27T08:31:02.214Z,13.78
2019-03-27T08:33:38.400Z,16.87
2019-03-27T08:36:10.210Z,15.23
2019-03-27T08:38:44.967Z,15.78
2019-03-27T08:41:16.371Z,11.83
2019-03-27T08:43:47.572Z,15.70
2019-03-27T08:46:19.178Z,11.40
2019-03-27T08:48:51.468Z,14.55
2019-03-27T08:51:22.767Z,9.73
2019-03-27T08:53:54.526Z,13.62
2019-03-27T08:56:25.835Z,18.70
2019-03-27T08:58:57.613Z,15.88
2019-03-27T09:01:28.937Z,14.98
2019-03-27T09:04:00.155Z,15.80
2019-03-27T09:06:33.927Z,16.00
2019-03-27T09:09:06.533Z,19.10
2019-03-27T09:11:37.830Z,21.40
2019-03-27T09:14:09.061Z,17.40
2019-03-27T09:16:40.295Z,19.90
2019-03-27T09:19:11.530Z,19.20
2019-03-27T09:21:42.730Z,17.90
2019-03-27T09:24:13.981Z,10.72
2019-03-27T09:26:45.252Z,15.13
2019-03-27T09:29:16.734Z,18.60
2019-03-27T09:31:47.983Z,10.20
2019-03-27T09:34:19.309Z,17.87
2019-03-27T09:36:50.499Z,17.17
2019-03-27T09:39:21.714Z,14.58
2019-03-27T09:41:52.934Z,13.50
2019-03-27T09:44:24.135Z,16.82
2019-03-27T09:46:55.397Z,13.85
2019-03-27T09:49:26.592Z,14.70
2019-03-27T09:51:57.802Z,13.53
2019-03-27T09:54:29.068Z,14.18
2019-03-27T09:57:00.278Z,11.57
2019-03-27T09:59:31.571Z,8.40
2019-03-27T10:02:02.814Z,11.22
2019-03-27T10:04:33.961Z,6.87
2019-03-27T10:07:05.120Z,3.85
2019-03-27T10:09:36.396Z,3.37
2019-03-27T10:12:07.642Z,5.65
2019-03-27T10:14:38.893Z,8.90
2019-03-27T10:17:10.152Z,3.12
2019-03-27T10:19:41.411Z,3.60
2019-03-27T10:22:12.790Z,5.90
2019-03-27T10:24:44.033Z,7.05
2019-03-27T10:27:15.215Z,3.95
2019-03-27T10:29:46.367Z,5.78
2019-03-27T10:32:17.608Z,3.17
2019-03-27T10:34:48.978Z,7.67
2019-03-27T10:37:20.189Z,6.10
2019-03-27T10:39:51.454Z,5.80
2019-03-27T10:42:22.771Z,7.58
2019-03-27T10:44:54.035Z,10.25
2019-03-27T10:47:25.263Z,8.45
2019-03-27T10:49:56.425Z,7.05
2019-03-27T10:52:27.763Z,7.80
2019-03-27T10:54:59.008Z,5.08
2019-03-27T10:57:30.266Z,6.47
2019-03-27T11:00:01.550Z,6.60
2019-03-27T11:02:32.820Z,8.23
2019-03-27T11:05:04.009Z,8.53
2019-03-27T11:07:35.204Z,7.12
2019-03-27T11:10:07.302Z,9.65
2019-03-27T11:12:38.892Z,9.15
2019-03-27T11:15:10.699Z,7.70
2019-03-27T11:17:41.961Z,10.93
2019-03-27T11:20:14.947Z,8.65
2019-03-27T11:22:46.173Z,12.78
2019-03-27T11:25:17.453Z,5.92
2019-03-27T11:27:48.850Z,7.15
2019-03-27T11:30:25.311Z,7.35
2019-03-27T11:32:56.706Z,10.28
2019-03-27T11:35:28.042Z,6.37
2019-03-27T11:37:59.232Z,4.05
2019-03-27T11:40:30.475Z,6.22
2019-03-27T11:43:01.724Z,16.95
2019-03-27T11:45:32.990Z,11.65
2019-03-27T11:48:04.198Z,11.18
2019-03-27T11:50:44.608Z,8.20
2019-03-27T11:53:08.358Z,15.75
2019-03-27T11:55:39.638Z,10.90
2019-03-27T11:58:10.818Z,7.25
2019-03-27T12:00:53.890Z,6.90
2019-03-27T12:03:14.960Z,8.75
2019-03-27T12:05:46.128Z,8.15
2019-03-27T12:08:17.305Z,6.72
2019-03-27T12:10:48.535Z,8.18
2019-03-27T12:13:19.776Z,8.68
2019-03-27T12:15:51.045Z,5.97
2019-03-27T12:18:22.320Z,7.50
2019-03-27T12:20:59.510Z,7.53
2019-03-27T12:23:26.818Z,9.95
2019-03-27T12:25:58.175Z,7.75
2019-03-27T12:28:30.079Z,5.85
2019-03-27T12:31:02.215Z,7.75
2019-03-27T12:33:33.790Z,10.03
2019-03-27T12:36:05.308Z,10.23
2019-03-27T12:38:37.473Z,8.18
2019-03-27T12:41:10.545Z,9.43
2019-03-27T12:43:43.637Z,10.45
2019-03-27T12:46:15.475Z,12.93
2019-03-27T12:48:46.981Z,14.78
2019-03-27T12:51:18.750Z,11.33
2019-03-27T12:53:50.423Z,9.85
2019-03-27T12:56:21.969Z,10.20
2019-03-27T12:58:54.147Z,12.30
2019-03-27T13:01:25.598Z,14.03
2019-03-27T13:03:57.002Z,14.13
2019-03-27T13:06:28.641Z,10.82
2019-03-27T13:09:00.026Z,8.85
2019-03-27T13:11:31.981Z,5.53
2019-03-27T13:14:03.535Z,8.18
2019-03-27T13:16:34.905Z,9.03
2019-03-27T13:19:06.442Z,11.97
2019-03-27T13:21:37.825Z,12.20
2019-03-27T13:24:09.013Z,8.68
2019-03-27T13:26:40.204Z,7.10
2019-03-27T13:29:11.436Z,7.90
2019-03-27T13:31:42.644Z,7.50
2019-03-27T13:34:13.798Z,7.78
2019-03-27T13:36:49.276Z,9.65
2019-03-27T13:39:20.625Z,7.90
2019-03-27T13:41:51.797Z,9.13
2019-03-27T13:44:31.379Z,8.85
2019-03-27T13:46:55.957Z,11.25
2019-03-27T13:49:27.387Z,10.10
2019-03-27T13:51:58.560Z,8.98
2019-03-27T13:54:29.757Z,8.13
2019-03-27T13:57:00.959Z,9.40
2019-03-27T13:59:32.148Z,9.08
2019-03-27T14:02:03.354Z,9.30
2019-03-27T14:04:34.641Z,14.13
2019-03-27T14:07:05.865Z,13.60
2019-03-27T14:09:37.172Z,7.28
2019-03-27T14:12:08.498Z,13.05
2019-03-27T14:14:50.234Z,10.08
2019-03-27T14:17:13.271Z,10.43
2019-03-27T14:19:44.708Z,12.63
2019-03-27T14:22:16.127Z,10.95
2019-03-27T14:24:47.342Z,9.48
2019-03-27T14:27:18.809Z,12.63
2019-03-27T14:29:50.072Z,10.45
2019-03-27T14:32:21.319Z,13.85
2019-03-27T14:34:54.729Z,11.10
2019-03-27T14:37:25.909Z,12.45
2019-03-27T14:39:57.181Z,10.72
2019-03-27T14:42:28.636Z,14.28
2019-03-27T14:44:59.880Z,8.60
2019-03-27T14:47:31.136Z,10.53
2019-03-27T14:50:02.321Z,7.67
2019-03-27T14:52:33.738Z,8.38
2019-03-27T14:55:05.025Z,11.95
2019-03-27T14:57:38.559Z,13.45
2019-03-27T15:00:11.931Z,11.18
2019-03-27T15:02:43.324Z,13.22
2019-03-27T15:05:15.295Z,10.95
2019-03-27T15:07:46.524Z,9.48
2019-03-27T15:10:18.364Z,9.28
2019-03-27T15:12:49.590Z,12.78
2019-03-27T15:15:20.842Z,8.18
2019-03-27T15:17:52.114Z,7.62
2019-03-27T15:20:23.329Z,10.65
2019-03-27T15:22:54.641Z,12.60
2019-03-27T15:25:26.074Z,13.88
2019-03-27T15:27:57.351Z,13.72
2019-03-27T15:30:28.527Z,12.03
2019-03-27T15:33:00.120Z,11.95
2019-03-27T15:35:31.337Z,13.65
2019-03-27T15:38:02.567Z,12.30
2019-03-27T15:40:45.439Z,14.87
2019-03-27T15:43:16.695Z,10.28
2019-03-27T15:45:47.984Z,18.05
2019-03-27T15:48:19.308Z,10.95
2019-03-27T15:50:58.250Z,10.08
2019-03-27T15:53:23.460Z,14.73
2019-03-27T15:55:54.703Z,10.45
2019-03-27T15:58:25.952Z,14.03
2019-03-27T16:00:57.188Z,17.00
2019-03-27T16:03:28.420Z,11.63
2019-03-27T16:05:59.622Z,16.12
2019-03-27T16:08:30.863Z,8.58
2019-03-27T16:11:02.031Z,14.53
2019-03-27T16:13:33.212Z,9.35
2019-03-27T16:16:04.510Z,12.65
2019-03-27T16:18:35.758Z,12.50
2019-03-27T16:21:06.949Z,13.78
2019-03-27T16:23:38.285Z,15.03
2019-03-27T16:26:09.441Z,14.18
2019-03-27T16:28:40.643Z,12.23
2019-03-27T16:31:11.899Z,13.80
2019-03-27T16:33:43.128Z,12.30
2019-03-27T16:36:14.332Z,12.03
2019-03-27T16:38:45.569Z,12.70
2019-03-27T16:41:16.782Z,14.50
2019-03-27T16:43:48.057Z,17.10
2019-03-27T16:46:19.279Z,12.13
2019-03-27T16:48:50.470Z,11.08
2019-03-27T16:51:21.764Z,11.05
2019-03-27T16:53:53.083Z,15.38
2019-03-27T16:56:24.295Z,11.30
2019-03-27T16:58:55.544Z,12.78
2019-03-27T17:01:26.777Z,8.98
2019-03-27T17:03:58.059Z,11.18
2019-03-27T17:06:29.302Z,11.08
2019-03-27T17:09:02.063Z,12.15
2019-03-27T17:11:33.385Z,14.13
2019-03-27T17:14:04.615Z,11.97
2019-03-27T17:16:35.893Z,12.53
2019-03-27T17:19:07.201Z,10.43
2019-03-27T17:21:38.447Z,9.00
2019-03-27T17:24:09.707Z,10.58
2019-03-27T17:26:40.946Z,12.05
2019-03-27T17:29:12.162Z,11.38
2019-03-27T17:31:43.374Z,14.53
2019-03-27T17:34:14.550Z,13.58
2019-03-27T17:36:45.736Z,8.55
2019-03-27T17:39:16.907Z,9.00
2019-03-27T17:41:48.232Z,13.98
2019-03-27T17:44:19.445Z,10.28
2019-03-27T17:46:50.769Z,11.53
2019-03-27T17:49:21.949Z,11.88
2019-03-27T17:51:53.424Z,11.68
2019-03-27T17:54:25.074Z,10.23
2019-03-27T17:56:56.265Z,8.98
2019-03-27T17:59:27.447Z,9.80
2019-03-27T18:01:58.729Z,13.35
2019-03-27T18:04:29.898Z,14.23
2019-03-27T18:07:01.100Z,14.25
2019-03-27T18:09:33.301Z,17.65
2019-03-27T18:12:04.438Z,16.77
2019-03-27T18:14:35.604Z,20.00
2019-03-27T18:17:06.891Z,17.27
2019-03-27T18:19:38.093Z,18.85
2019-03-27T18:22:09.307Z,31.30
2019-03-27T18:24:40.620Z,20.65
2019-03-27T18:27:11.859Z,22.90
2019-03-27T18:29:43.198Z,26.42
2019-03-27T18:32:14.487Z,26.33
2019-03-27T18:34:45.733Z,20.82
2019-03-27T18:37:16.999Z,23.50
2019-03-27T18:39:48.256Z,21.10
2019-03-27T18:42:19.556Z,23.60
2019-03-27T18:44:50.822Z,25.85
2019-03-27T18:47:22.133Z,22.70
2019-03-27T18:49:53.365Z,19.50
2019-03-27T18:52:24.625Z,24.37
2019-03-27T18:54:55.886Z,27.73
2019-03-27T18:57:27.095Z,22.52
2019-03-27T18:59:58.302Z,24.57
2019-03-27T19:02:29.528Z,24.27
2019-03-27T19:05:00.789Z,18.70
2019-03-27T19:07:32.080Z,24.87
2019-03-27T19:10:03.314Z,30.70
2019-03-27T19:12:34.544Z,31.85
2019-03-27T19:15:06.346Z,25.32
2019-03-27T19:17:37.703Z,24.57
2019-03-27T19:20:10.487Z,23.50
2019-03-27T19:22:41.709Z,21.95
2019-03-27T19:25:13.125Z,27.22
2019-03-27T19:27:44.438Z,24.70
2019-03-27T19:30:17.403Z,22.60
2019-03-27T19:32:48.594Z,24.72
2019-03-27T19:35:20.037Z,22.27
2019-03-27T19:37:51.251Z,35.00
2019-03-27T19:40:22.472Z,25.25
2019-03-27T19:42:53.659Z,26.10
2019-03-27T19:45:25.126Z,22.73
2019-03-27T19:47:56.395Z,28.20
2019-03-27T19:50:27.616Z,25.72
2019-03-27T19:52:58.888Z,25.92
2019-03-27T19:55:30.075Z,26.93
2019-03-27T19:58:01.267Z,25.48
2019-03-27T20:00:32.586Z,32.25
2019-03-27T20:03:03.807Z,24.95
2019-03-27T20:05:35.006Z,27.70
2019-03-27T20:08:07.020Z,24.92
2019-03-27T20:10:38.246Z,31.77
2019-03-27T20:13:09.547Z,30.97
2019-03-27T20:15:40.743Z,29.48
2019-03-27T20:18:11.981Z,35.92
2019-03-27T20:20:43.186Z,28.45
2019-03-27T20:23:15.607Z,29.12
2019-03-27T20:25:46.991Z,30.00
2019-03-27T20:28:18.253Z,26.73
2019-03-27T20:30:49.468Z,33.53
2019-03-27T20:33:20.690Z,28.85
2019-03-27T20:35:51.873Z,32.23
2019-03-27T20:38:23.203Z,38.02
2019-03-27T20:40:54.476Z,28.95
2019-03-27T20:43:25.794Z,25.05
2019-03-27T20:45:56.963Z,39.42
2019-03-27T20:48:28.164Z,28.40
2019-03-27T20:50:59.520Z,29.20
2019-03-27T20:53:30.693Z,31.90
2019-03-27T20:56:01.965Z,41.48
2019-03-27T20:58:33.210Z,36.90
2019-03-27T21:01:04.520Z,38.38
2019-03-27T21:03:35.688Z,34.83
2019-03-27T21:06:06.909Z,39.18
2019-03-27T21:08:38.082Z,36.45
2019-03-27T21:11:09.250Z,39.83
2019-03-27T21:13:41.241Z,34.85
2019-03-27T21:16:12.690Z,41.77
2019-03-27T21:18:44.005Z,36.73
2019-03-27T21:21:15.231Z,31.25
2019-03-27T21:23:46.436Z,30.62
2019-03-27T21:26:17.593Z,35.38
2019-03-27T21:28:48.801Z,35.58
2019-03-27T21:31:20.013Z,31.10
2019-03-27T21:33:51.175Z,33.05
2019-03-27T21:36:22.528Z,42.98
2019-03-27T21:38:53.736Z,29.00
2019-03-27T21:41:24.918Z,33.30
2019-03-27T21:43:56.098Z,43.05
2019-03-27T21:46:27.307Z,40.38
2019-03-27T21:48:58.579Z,36.70
2019-03-27T21:51:29.827Z,40.73
2019-03-27T21:54:01.053Z,41.13
2019-03-27T21:56:32.222Z,34.90
2019-03-27T21:59:03.528Z,33.38
2019-03-27T22:01:34.795Z,36.98
2019-03-27T22:04:06.036Z,34.43
2019-03-27T22:06:37.415Z,33.98
2019-03-27T22:09:09.954Z,42.73
2019-03-27T22:11:41.148Z,35.48
2019-03-27T22:14:12.389Z,37.90
2019-03-27T22:16:43.601Z,41.05
2019-03-27T22:19:14.776Z,34.85
2019-03-27T22:21:45.952Z,40.20
2019-03-27T22:24:17.171Z,39.10
2019-03-27T22:26:49.567Z,38.45
2019-03-27T22:29:20.772Z,34.35
2019-03-27T22:31:51.959Z,37.58
2019-03-27T22:34:23.147Z,41.13
2019-03-27T22:36:54.383Z,39.80
2019-03-27T22:39:25.571Z,36.48
2019-03-27T22:41:56.748Z,43.33
2019-03-27T22:44:27.954Z,42.55
2019-03-27T22:46:59.122Z,41.65
2019-03-27T22:49:30.380Z,38.17
2019-03-27T22:52:01.655Z,38.42
2019-03-27T22:54:32.817Z,48.73
2019-03-27T22:57:04.081Z,45.98
2019-03-27T22:59:35.316Z,43.92
2019-03-27T23:02:06.635Z,44.45
2019-03-27T23:04:37.830Z,38.23
2019-03-27T23:07:09.014Z,37.08
2019-03-27T23:09:40.202Z,41.28
2019-03-27T23:12:11.345Z,45.30
2019-03-27T23:14:42.557Z,39.03
2019-03-27T23:17:13.736Z,42.20
2019-03-27T23:19:44.918Z,41.10
2019-03-27T23:22:16.175Z,40.00
2019-03-27T23:24:47.326Z,41.33
2019-03-27T23:27:18.476Z,46.35
2019-03-27T23:29:49.686Z,46.02
2019-03-27T23:32:20.832Z,43.02
2019-03-27T23:34:52.033Z,42.48
2019-03-27T23:37:23.338Z,41.10
2019-03-27T23:39:54.512Z,42.48
2019-03-27T23:42:25.693Z,41.15
2019-03-27T23:44:57.049Z,44.25
2019-03-27T23:47:28.295Z,41.95
2019-03-27T23:49:59.456Z,40.95
2019-03-27T23:52:30.734Z,46.92
2019-03-27T23:55:01.944Z,55.03
2019-03-27T23:57:33.125Z,46.63
